sensor_id;sensor_type;location;lat;lon;timestamp;P1;durP1;ratioP1;P2;durP2;ratioP2
2602;SDS011;1311;47.966;7.958;2022-12-13T00:00:24;6.23;;;2.80;;
2602;SDS011;1311;47.966;7.958;2022-12-13T00:02:51;7.27;;;4.43;;
2602;SDS011;1311;47.966;7.958;2022-12-13T00:05:18;6.70;;;3.90;;
2602;SDS011;1311;47.966;7.958;2022-12-13T00:07:46;10.43;;;4.90;;
2602;SDS011;1311;47.966;7.958;2022-12-13T00:10:13;7.80;;;4.47;;
2602;SDS011;1311;47.966;7.958;2022-12-13T00:12:39;4.37;;;2.47;;
2602;SDS011;1311;47.966;7.958;2022-12-13T00:15:07;6.90;;;3.97;;
2602;SDS011;1311;47.966;7.958;2022-12-13T00:17:34;4.90;;;3.40;;
2602;SDS011;1311;47.966;7.958;2022-12-13T00:20:01;5.40;;;2.80;;
2602;SDS011;1311;47.966;7.958;2022-12-13T00:22:28;10.13;;;3.50;;
2602;SDS011;1311;47.966;7.958;2022-12-13T00:24:56;4.00;;;2.73;;
2602;SDS011;1311;47.966;7.958;2022-12-13T00:27:23;3.57;;;3.03;;
2602;SDS011;1311;47.966;7.958;2022-12-13T00:29:50;6.00;;;3.27;;
2602;SDS011;1311;47.966;7.958;2022-12-13T00:32:17;6.67;;;3.37;;
2602;SDS011;1311;47.966;7.958;2022-12-13T00:34:43;6.00;;;3.43;;
2602;SDS011;1311;47.966;7.958;2022-12-13T00:37:10;7.60;;;2.90;;
2602;SDS011;1311;47.966;7.958;2022-12-13T00:39:37;5.60;;;3.20;;
2602;SDS011;1311;47.966;7.958;2022-12-13T00:42:06;5.00;;;3.57;;
2602;SDS011;1311;47.966;7.958;2022-12-13T00:44:32;6.87;;;4.17;;
2602;SDS011;1311;47.966;7.958;2022-12-13T00:46:59;9.83;;;5.73;;
2602;SDS011;1311;47.966;7.958;2022-12-13T00:49:28;10.57;;;6.23;;
2602;SDS011;1311;47.966;7.958;2022-12-13T00:51:55;7.97;;;5.50;;
2602;SDS011;1311;47.966;7.958;2022-12-13T00:54:22;11.03;;;6.00;;
2602;SDS011;1311;47.966;7.958;2022-12-13T00:56:48;10.30;;;6.17;;
2602;SDS011;1311;47.966;7.958;2022-12-13T00:59:17;12.30;;;6.03;;
2602;SDS011;1311;47.966;7.958;2022-12-13T01:01:44;10.03;;;5.47;;
2602;SDS011;1311;47.966;7.958;2022-12-13T01:04:11;12.53;;;7.07;;
2602;SDS011;1311;47.966;7.958;2022-12-13T01:06:38;15.87;;;6.47;;
2602;SDS011;1311;47.966;7.958;2022-12-13T01:09:07;15.10;;;8.37;;
2602;SDS011;1311;47.966;7.958;2022-12-13T01:11:40;14.40;;;8.17;;
2602;SDS011;1311;47.966;7.958;2022-12-13T01:14:07;22.70;;;8.90;;
2602;SDS011;1311;47.966;7.958;2022-12-13T01:16:35;17.70;;;7.83;;
2602;SDS011;1311;47.966;7.958;2022-12-13T01:19:02;14.40;;;6.50;;
2602;SDS011;1311;47.966;7.958;2022-12-13T01:21:31;11.33;;;7.80;;
2602;SDS011;1311;47.966;7.958;2022-12-13T01:24:01;14.60;;;6.30;;
2602;SDS011;1311;47.966;7.958;2022-12-13T01:26:28;11.33;;;5.50;;
2602;SDS011;1311;47.966;7.958;2022-12-13T01:28:55;6.50;;;4.90;;
2602;SDS011;1311;47.966;7.958;2022-12-13T01:31:22;6.87;;;3.50;;
2602;SDS011;1311;47.966;7.958;2022-12-13T01:33:50;8.50;;;3.60;;
2602;SDS011;1311;47.966;7.958;2022-12-13T01:36:18;4.27;;;2.80;;
2602;SDS011;1311;47.966;7.958;2022-12-13T01:38:46;4.90;;;3.10;;
2602;SDS011;1311;47.966;7.958;2022-12-13T01:41:14;5.00;;;2.83;;
2602;SDS011;1311;47.966;7.958;2022-12-13T01:43:52;5.73;;;3.00;;
2602;SDS011;1311;47.966;7.958;2022-12-13T01:46:24;4.90;;;2.80;;
2602;SDS011;1311;47.966;7.958;2022-12-13T01:48:54;3.00;;;2.27;;
2602;SDS011;1311;47.966;7.958;2022-12-13T01:51:32;5.93;;;2.80;;
2602;SDS011;1311;47.966;7.958;2022-12-13T01:54:03;5.37;;;2.83;;
2602;SDS011;1311;47.966;7.958;2022-12-13T01:56:35;3.63;;;2.20;;
2602;SDS011;1311;47.966;7.958;2022-12-13T01:59:06;10.17;;;5.17;;
2602;SDS011;1311;47.966;7.958;2022-12-13T02:01:35;11.20;;;5.70;;
2602;SDS011;1311;47.966;7.958;2022-12-13T02:04:04;11.87;;;6.43;;
2602;SDS011;1311;47.966;7.958;2022-12-13T02:06:32;12.73;;;6.87;;
2602;SDS011;1311;47.966;7.958;2022-12-13T02:09:03;12.13;;;5.43;;
2602;SDS011;1311;47.966;7.958;2022-12-13T02:11:31;11.20;;;5.17;;
2602;SDS011;1311;47.966;7.958;2022-12-13T02:13:59;10.00;;;5.43;;
2602;SDS011;1311;47.966;7.958;2022-12-13T02:16:34;10.50;;;5.43;;
2602;SDS011;1311;47.966;7.958;2022-12-13T02:19:17;12.27;;;6.30;;
2602;SDS011;1311;47.966;7.958;2022-12-13T02:22:14;12.77;;;6.63;;
2602;SDS011;1311;47.966;7.958;2022-12-13T02:25:03;15.83;;;6.77;;
2602;SDS011;1311;47.966;7.958;2022-12-13T02:27:49;14.20;;;6.80;;
2602;SDS011;1311;47.966;7.958;2022-12-13T02:30:31;17.13;;;8.33;;
2602;SDS011;1311;47.966;7.958;2022-12-13T02:33:10;17.50;;;7.70;;
2602;SDS011;1311;47.966;7.958;2022-12-13T02:35:51;15.57;;;8.13;;
2602;SDS011;1311;47.966;7.958;2022-12-13T02:38:26;11.27;;;7.40;;
2602;SDS011;1311;47.966;7.958;2022-12-13T02:40:59;14.70;;;8.60;;
2602;SDS011;1311;47.966;7.958;2022-12-13T02:43:36;17.33;;;8.90;;
2602;SDS011;1311;47.966;7.958;2022-12-13T02:46:08;18.67;;;8.77;;
2602;SDS011;1311;47.966;7.958;2022-12-13T02:48:38;18.07;;;10.60;;
2602;SDS011;1311;47.966;7.958;2022-12-13T02:51:08;13.73;;;6.83;;
2602;SDS011;1311;47.966;7.958;2022-12-13T02:53:37;18.87;;;7.43;;
2602;SDS011;1311;47.966;7.958;2022-12-13T02:56:06;22.50;;;8.97;;
2602;SDS011;1311;47.966;7.958;2022-12-13T02:58:33;22.17;;;10.40;;
2602;SDS011;1311;47.966;7.958;2022-12-13T03:01:06;18.63;;;9.37;;
2602;SDS011;1311;47.966;7.958;2022-12-13T03:03:47;20.33;;;9.63;;
2602;SDS011;1311;47.966;7.958;2022-12-13T03:06:25;23.73;;;11.40;;
2602;SDS011;1311;47.966;7.958;2022-12-13T03:09:00;18.30;;;8.80;;
2602;SDS011;1311;47.966;7.958;2022-12-13T03:11:38;21.73;;;10.77;;
2602;SDS011;1311;47.966;7.958;2022-12-13T03:14:31;15.43;;;8.33;;
2602;SDS011;1311;47.966;7.958;2022-12-13T03:17:02;15.30;;;8.63;;
2602;SDS011;1311;47.966;7.958;2022-12-13T03:19:32;22.13;;;11.10;;
2602;SDS011;1311;47.966;7.958;2022-12-13T03:21:59;20.13;;;10.30;;
2602;SDS011;1311;47.966;7.958;2022-12-13T03:24:25;17.63;;;10.10;;
2602;SDS011;1311;47.966;7.958;2022-12-13T03:26:52;17.93;;;9.17;;
2602;SDS011;1311;47.966;7.958;2022-12-13T03:29:19;20.70;;;9.70;;
2602;SDS011;1311;47.966;7.958;2022-12-13T03:31:46;10.47;;;5.40;;
2602;SDS011;1311;47.966;7.958;2022-12-13T03:34:17;13.00;;;6.37;;
2602;SDS011;1311;47.966;7.958;2022-12-13T03:36:44;10.57;;;6.37;;
2602;SDS011;1311;47.966;7.958;2022-12-13T03:39:11;16.07;;;5.30;;
2602;SDS011;1311;47.966;7.958;2022-12-13T03:41:37;6.37;;;3.53;;
2602;SDS011;1311;47.966;7.958;2022-12-13T03:44:05;5.73;;;3.07;;
2602;SDS011;1311;47.966;7.958;2022-12-13T03:46:33;5.67;;;3.03;;
2602;SDS011;1311;47.966;7.958;2022-12-13T03:49:00;5.97;;;2.83;;
2602;SDS011;1311;47.966;7.958;2022-12-13T03:51:29;4.70;;;2.87;;
2602;SDS011;1311;47.966;7.958;2022-12-13T03:53:56;4.47;;;2.67;;
2602;SDS011;1311;47.966;7.958;2022-12-13T03:56:23;3.83;;;2.57;;
2602;SDS011;1311;47.966;7.958;2022-12-13T03:58:50;2.40;;;2.00;;
2602;SDS011;1311;47.966;7.958;2022-12-13T04:01:17;4.77;;;2.97;;
2602;SDS011;1311;47.966;7.958;2022-12-13T04:03:44;5.63;;;3.03;;
2602;SDS011;1311;47.966;7.958;2022-12-13T04:06:12;5.73;;;3.10;;
2602;SDS011;1311;47.966;7.958;2022-12-13T04:08:40;5.27;;;3.23;;
2602;SDS011;1311;47.966;7.958;2022-12-13T04:11:07;9.90;;;4.80;;
2602;SDS011;1311;47.966;7.958;2022-12-13T04:13:53;12.97;;;6.33;;
2602;SDS011;1311;47.966;7.958;2022-12-13T04:16:21;12.87;;;6.03;;
2602;SDS011;1311;47.966;7.958;2022-12-13T04:18:48;12.57;;;7.30;;
2602;SDS011;1311;47.966;7.958;2022-12-13T04:21:15;16.93;;;7.87;;
2602;SDS011;1311;47.966;7.958;2022-12-13T04:23:43;15.70;;;7.57;;
2602;SDS011;1311;47.966;7.958;2022-12-13T04:26:10;15.03;;;8.17;;
2602;SDS011;1311;47.966;7.958;2022-12-13T04:28:37;18.97;;;7.57;;
2602;SDS011;1311;47.966;7.958;2022-12-13T04:31:04;21.83;;;10.43;;
2602;SDS011;1311;47.966;7.958;2022-12-13T04:33:31;20.80;;;9.63;;
2602;SDS011;1311;47.966;7.958;2022-12-13T04:35:58;21.17;;;11.40;;
2602;SDS011;1311;47.966;7.958;2022-12-13T04:38:25;29.80;;;11.80;;
2602;SDS011;1311;47.966;7.958;2022-12-13T04:40:53;18.80;;;9.90;;
2602;SDS011;1311;47.966;7.958;2022-12-13T04:43:29;19.33;;;10.50;;
2602;SDS011;1311;47.966;7.958;2022-12-13T04:45:56;23.87;;;9.30;;
2602;SDS011;1311;47.966;7.958;2022-12-13T04:48:23;20.23;;;9.40;;
2602;SDS011;1311;47.966;7.958;2022-12-13T04:50:50;30.80;;;11.77;;
2602;SDS011;1311;47.966;7.958;2022-12-13T04:53:17;22.50;;;10.30;;
2602;SDS011;1311;47.966;7.958;2022-12-13T04:55:43;33.93;;;13.70;;
2602;SDS011;1311;47.966;7.958;2022-12-13T04:58:11;26.73;;;10.90;;
2602;SDS011;1311;47.966;7.958;2022-12-13T05:00:38;23.80;;;9.97;;
2602;SDS011;1311;47.966;7.958;2022-12-13T05:03:05;23.77;;;11.27;;
2602;SDS011;1311;47.966;7.958;2022-12-13T05:05:32;21.93;;;11.10;;
2602;SDS011;1311;47.966;7.958;2022-12-13T05:07:59;22.60;;;11.40;;
2602;SDS011;1311;47.966;7.958;2022-12-13T05:10:26;27.70;;;11.27;;
2602;SDS011;1311;47.966;7.958;2022-12-13T05:12:52;25.00;;;10.10;;
2602;SDS011;1311;47.966;7.958;2022-12-13T05:15:20;22.37;;;11.13;;
2602;SDS011;1311;47.966;7.958;2022-12-13T05:17:47;19.83;;;9.07;;
2602;SDS011;1311;47.966;7.958;2022-12-13T05:20:14;24.50;;;10.40;;
2602;SDS011;1311;47.966;7.958;2022-12-13T05:22:41;34.90;;;11.43;;
2602;SDS011;1311;47.966;7.958;2022-12-13T05:25:08;21.73;;;9.07;;
2602;SDS011;1311;47.966;7.958;2022-12-13T05:27:35;19.07;;;10.07;;
2602;SDS011;1311;47.966;7.958;2022-12-13T05:30:02;14.50;;;7.50;;
2602;SDS011;1311;47.966;7.958;2022-12-13T05:32:31;19.80;;;10.87;;
2602;SDS011;1311;47.966;7.958;2022-12-13T05:35:00;16.90;;;8.83;;
2602;SDS011;1311;47.966;7.958;2022-12-13T05:37:28;18.47;;;8.17;;
2602;SDS011;1311;47.966;7.958;2022-12-13T05:39:55;27.37;;;14.40;;
2602;SDS011;1311;47.966;7.958;2022-12-13T05:42:22;26.37;;;11.53;;
2602;SDS011;1311;47.966;7.958;2022-12-13T05:44:50;25.07;;;10.97;;
2602;SDS011;1311;47.966;7.958;2022-12-13T05:47:16;25.30;;;12.50;;
2602;SDS011;1311;47.966;7.958;2022-12-13T05:49:45;22.90;;;9.67;;
2602;SDS011;1311;47.966;7.958;2022-12-13T05:52:14;18.37;;;7.97;;
2602;SDS011;1311;47.966;7.958;2022-12-13T05:54:42;22.00;;;8.07;;
2602;SDS011;1311;47.966;7.958;2022-12-13T05:57:09;19.13;;;9.30;;
2602;SDS011;1311;47.966;7.958;2022-12-13T05:59:36;28.30;;;12.07;;
2602;SDS011;1311;47.966;7.958;2022-12-13T06:02:03;24.77;;;9.90;;
2602;SDS011;1311;47.966;7.958;2022-12-13T06:04:30;18.17;;;8.97;;
2602;SDS011;1311;47.966;7.958;2022-12-13T06:06:58;28.70;;;13.90;;
2602;SDS011;1311;47.966;7.958;2022-12-13T06:09:25;26.40;;;12.20;;
2602;SDS011;1311;47.966;7.958;2022-12-13T06:11:51;26.13;;;11.43;;
2602;SDS011;1311;47.966;7.958;2022-12-13T06:14:18;27.40;;;13.00;;
2602;SDS011;1311;47.966;7.958;2022-12-13T06:16:45;18.30;;;6.90;;
2602;SDS011;1311;47.966;7.958;2022-12-13T06:19:12;54.40;;;15.60;;
2602;SDS011;1311;47.966;7.958;2022-12-13T06:21:39;33.27;;;14.83;;
2602;SDS011;1311;47.966;7.958;2022-12-13T06:24:07;20.67;;;9.00;;
2602;SDS011;1311;47.966;7.958;2022-12-13T06:26:34;23.23;;;10.30;;
2602;SDS011;1311;47.966;7.958;2022-12-13T06:29:01;28.63;;;13.67;;
2602;SDS011;1311;47.966;7.958;2022-12-13T06:31:28;36.40;;;14.23;;
2602;SDS011;1311;47.966;7.958;2022-12-13T06:33:55;33.50;;;15.30;;
2602;SDS011;1311;47.966;7.958;2022-12-13T06:36:26;36.53;;;15.47;;
2602;SDS011;1311;47.966;7.958;2022-12-13T06:38:52;43.00;;;14.50;;
2602;SDS011;1311;47.966;7.958;2022-12-13T06:41:21;31.10;;;13.37;;
2602;SDS011;1311;47.966;7.958;2022-12-13T06:43:47;34.50;;;14.93;;
2602;SDS011;1311;47.966;7.958;2022-12-13T06:46:14;36.33;;;14.70;;
2602;SDS011;1311;47.966;7.958;2022-12-13T06:48:41;31.00;;;14.10;;
2602;SDS011;1311;47.966;7.958;2022-12-13T06:51:08;28.60;;;11.97;;
2602;SDS011;1311;47.966;7.958;2022-12-13T06:53:35;26.43;;;11.47;;
2602;SDS011;1311;47.966;7.958;2022-12-13T06:56:06;19.30;;;8.80;;
2602;SDS011;1311;47.966;7.958;2022-12-13T06:58:35;41.10;;;16.67;;
2602;SDS011;1311;47.966;7.958;2022-12-13T07:01:03;25.03;;;12.03;;
2602;SDS011;1311;47.966;7.958;2022-12-13T07:03:31;37.03;;;15.67;;
2602;SDS011;1311;47.966;7.958;2022-12-13T07:05:59;27.67;;;9.53;;
2602;SDS011;1311;47.966;7.958;2022-12-13T07:08:28;22.73;;;10.00;;
2602;SDS011;1311;47.966;7.958;2022-12-13T07:10:55;36.47;;;15.13;;
2602;SDS011;1311;47.966;7.958;2022-12-13T07:13:22;28.67;;;13.83;;
2602;SDS011;1311;47.966;7.958;2022-12-13T07:15:51;28.70;;;11.73;;
2602;SDS011;1311;47.966;7.958;2022-12-13T07:18:17;20.43;;;9.10;;
2602;SDS011;1311;47.966;7.958;2022-12-13T07:20:44;28.70;;;12.13;;
2602;SDS011;1311;47.966;7.958;2022-12-13T07:23:11;23.57;;;11.00;;
2602;SDS011;1311;47.966;7.958;2022-12-13T07:25:39;21.20;;;9.93;;
2602;SDS011;1311;47.966;7.958;2022-12-13T07:28:06;33.70;;;13.93;;
2602;SDS011;1311;47.966;7.958;2022-12-13T07:30:35;31.77;;;14.33;;
2602;SDS011;1311;47.966;7.958;2022-12-13T07:33:05;25.83;;;10.50;;
2602;SDS011;1311;47.966;7.958;2022-12-13T07:35:32;27.27;;;11.70;;
2602;SDS011;1311;47.966;7.958;2022-12-13T07:37:59;27.23;;;11.43;;
2602;SDS011;1311;47.966;7.958;2022-12-13T07:40:26;21.40;;;9.30;;
2602;SDS011;1311;47.966;7.958;2022-12-13T07:42:53;25.90;;;11.50;;
2602;SDS011;1311;47.966;7.958;2022-12-13T07:45:21;36.50;;;15.23;;
2602;SDS011;1311;47.966;7.958;2022-12-13T07:47:49;33.70;;;13.40;;
2602;SDS011;1311;47.966;7.958;2022-12-13T07:50:17;20.83;;;10.00;;
2602;SDS011;1311;47.966;7.958;2022-12-13T07:52:45;31.90;;;14.37;;
2602;SDS011;1311;47.966;7.958;2022-12-13T07:55:12;25.20;;;11.90;;
2602;SDS011;1311;47.966;7.958;2022-12-13T07:57:39;24.80;;;8.30;;
2602;SDS011;1311;47.966;7.958;2022-12-13T08:00:06;15.70;;;8.57;;
2602;SDS011;1311;47.966;7.958;2022-12-13T08:02:34;18.40;;;9.83;;
2602;SDS011;1311;47.966;7.958;2022-12-13T08:05:01;23.03;;;9.10;;
2602;SDS011;1311;47.966;7.958;2022-12-13T08:07:29;29.63;;;15.50;;
2602;SDS011;1311;47.966;7.958;2022-12-13T08:09:56;25.37;;;12.30;;
2602;SDS011;1311;47.966;7.958;2022-12-13T08:12:23;28.13;;;15.40;;
2602;SDS011;1311;47.966;7.958;2022-12-13T08:14:50;21.00;;;11.03;;
2602;SDS011;1311;47.966;7.958;2022-12-13T08:17:17;22.47;;;10.07;;
2602;SDS011;1311;47.966;7.958;2022-12-13T08:19:44;25.53;;;13.53;;
2602;SDS011;1311;47.966;7.958;2022-12-13T08:22:11;28.03;;;14.40;;
2602;SDS011;1311;47.966;7.958;2022-12-13T08:24:39;20.10;;;8.00;;
2602;SDS011;1311;47.966;7.958;2022-12-13T08:27:06;24.00;;;12.60;;
2602;SDS011;1311;47.966;7.958;2022-12-13T08:29:33;25.40;;;13.47;;
2602;SDS011;1311;47.966;7.958;2022-12-13T08:32:01;26.97;;;13.00;;
2602;SDS011;1311;47.966;7.958;2022-12-13T08:34:29;26.17;;;13.83;;
2602;SDS011;1311;47.966;7.958;2022-12-13T08:36:56;19.33;;;8.10;;
2602;SDS011;1311;47.966;7.958;2022-12-13T08:39:24;15.97;;;9.70;;
2602;SDS011;1311;47.966;7.958;2022-12-13T08:41:52;30.63;;;13.27;;
2602;SDS011;1311;47.966;7.958;2022-12-13T08:44:19;16.20;;;7.80;;
2602;SDS011;1311;47.966;7.958;2022-12-13T08:46:45;20.07;;;10.13;;
2602;SDS011;1311;47.966;7.958;2022-12-13T08:49:12;34.27;;;17.90;;
2602;SDS011;1311;47.966;7.958;2022-12-13T08:51:39;22.60;;;10.27;;
2602;SDS011;1311;47.966;7.958;2022-12-13T08:54:06;18.30;;;8.17;;
2602;SDS011;1311;47.966;7.958;2022-12-13T08:56:33;24.63;;;13.90;;
2602;SDS011;1311;47.966;7.958;2022-12-13T08:59:01;21.70;;;8.83;;
2602;SDS011;1311;47.966;7.958;2022-12-13T09:01:28;27.97;;;14.30;;
2602;SDS011;1311;47.966;7.958;2022-12-13T09:03:55;24.00;;;10.37;;
2602;SDS011;1311;47.966;7.958;2022-12-13T09:06:22;27.60;;;14.10;;
2602;SDS011;1311;47.966;7.958;2022-12-13T09:08:51;15.17;;;7.37;;
2602;SDS011;1311;47.966;7.958;2022-12-13T09:11:18;19.57;;;11.10;;
2602;SDS011;1311;47.966;7.958;2022-12-13T09:13:45;27.00;;;12.70;;
2602;SDS011;1311;47.966;7.958;2022-12-13T09:16:15;32.97;;;15.60;;
2602;SDS011;1311;47.966;7.958;2022-12-13T09:18:46;23.37;;;12.30;;
2602;SDS011;1311;47.966;7.958;2022-12-13T09:21:13;33.63;;;16.93;;
2602;SDS011;1311;47.966;7.958;2022-12-13T09:23:41;35.70;;;14.90;;
2602;SDS011;1311;47.966;7.958;2022-12-13T09:26:08;24.17;;;10.83;;
2602;SDS011;1311;47.966;7.958;2022-12-13T09:28:36;34.00;;;15.43;;
2602;SDS011;1311;47.966;7.958;2022-12-13T09:31:05;29.83;;;15.10;;
2602;SDS011;1311;47.966;7.958;2022-12-13T09:33:34;21.13;;;9.27;;
2602;SDS011;1311;47.966;7.958;2022-12-13T09:36:02;22.37;;;11.80;;
2602;SDS011;1311;47.966;7.958;2022-12-13T09:38:30;24.00;;;12.80;;
2602;SDS011;1311;47.966;7.958;2022-12-13T09:40:58;27.90;;;13.77;;
2602;SDS011;1311;47.966;7.958;2022-12-13T09:43:28;28.87;;;14.53;;
2602;SDS011;1311;47.966;7.958;2022-12-13T09:45:57;33.23;;;15.57;;
2602;SDS011;1311;47.966;7.958;2022-12-13T09:48:25;24.90;;;12.50;;
2602;SDS011;1311;47.966;7.958;2022-12-13T09:50:54;25.10;;;13.50;;
2602;SDS011;1311;47.966;7.958;2022-12-13T09:53:21;30.20;;;15.10;;
2602;SDS011;1311;47.966;7.958;2022-12-13T09:55:48;22.07;;;11.40;;
2602;SDS011;1311;47.966;7.958;2022-12-13T09:58:17;30.80;;;15.77;;
2602;SDS011;1311;47.966;7.958;2022-12-13T10:00:46;24.77;;;10.70;;
2602;SDS011;1311;47.966;7.958;2022-12-13T10:03:15;30.17;;;14.97;;
2602;SDS011;1311;47.966;7.958;2022-12-13T10:05:44;32.93;;;16.27;;
2602;SDS011;1311;47.966;7.958;2022-12-13T10:08:19;28.33;;;15.70;;
2602;SDS011;1311;47.966;7.958;2022-12-13T10:10:49;33.33;;;15.80;;
2602;SDS011;1311;47.966;7.958;2022-12-13T10:13:18;24.40;;;12.17;;
2602;SDS011;1311;47.966;7.958;2022-12-13T10:15:49;29.67;;;15.20;;
2602;SDS011;1311;47.966;7.958;2022-12-13T10:18:20;33.87;;;15.63;;
2602;SDS011;1311;47.966;7.958;2022-12-13T10:20:56;35.90;;;16.80;;
2602;SDS011;1311;47.966;7.958;2022-12-13T10:23:25;29.80;;;15.53;;
2602;SDS011;1311;47.966;7.958;2022-12-13T10:25:52;28.27;;;13.57;;
2602;SDS011;1311;47.966;7.958;2022-12-13T10:28:23;28.87;;;14.20;;
2602;SDS011;1311;47.966;7.958;2022-12-13T10:30:52;28.47;;;13.77;;
2602;SDS011;1311;47.966;7.958;2022-12-13T10:33:21;21.17;;;12.20;;
2602;SDS011;1311;47.966;7.958;2022-12-13T10:36:03;26.67;;;14.47;;
2602;SDS011;1311;47.966;7.958;2022-12-13T10:38:39;21.93;;;12.63;;
2602;SDS011;1311;47.966;7.958;2022-12-13T10:41:27;22.93;;;13.40;;
2602;SDS011;1311;47.966;7.958;2022-12-13T10:46:51;26.43;;;13.43;;
2602;SDS011;1311;47.966;7.958;2022-12-13T10:49:28;31.20;;;15.57;;
2602;SDS011;1311;47.966;7.958;2022-12-13T10:52:02;24.97;;;13.07;;
2602;SDS011;1311;47.966;7.958;2022-12-13T10:54:32;27.07;;;15.17;;
2602;SDS011;1311;47.966;7.958;2022-12-13T10:57:01;31.73;;;15.87;;
2602;SDS011;1311;47.966;7.958;2022-12-13T10:59:30;28.67;;;15.73;;
2602;SDS011;1311;47.966;7.958;2022-12-13T11:01:58;28.83;;;15.00;;
2602;SDS011;1311;47.966;7.958;2022-12-13T11:04:28;28.83;;;13.50;;
2602;SDS011;1311;47.966;7.958;2022-12-13T11:06:56;31.63;;;15.60;;
2602;SDS011;1311;47.966;7.958;2022-12-13T11:09:26;25.43;;;14.33;;
2602;SDS011;1311;47.966;7.958;2022-12-13T11:11:56;27.53;;;13.90;;
2602;SDS011;1311;47.966;7.958;2022-12-13T11:14:26;23.03;;;12.63;;
2602;SDS011;1311;47.966;7.958;2022-12-13T11:16:57;29.77;;;15.47;;
2602;SDS011;1311;47.966;7.958;2022-12-13T11:19:32;29.97;;;14.80;;
2602;SDS011;1311;47.966;7.958;2022-12-13T11:22:03;20.50;;;11.57;;
2602;SDS011;1311;47.966;7.958;2022-12-13T11:24:32;26.10;;;14.40;;
2602;SDS011;1311;47.966;7.958;2022-12-13T11:27:07;28.57;;;15.30;;
2602;SDS011;1311;47.966;7.958;2022-12-13T11:30:09;24.20;;;12.90;;
2602;SDS011;1311;47.966;7.958;2022-12-13T11:32:42;27.20;;;13.60;;
2602;SDS011;1311;47.966;7.958;2022-12-13T11:35:21;24.87;;;13.40;;
2602;SDS011;1311;47.966;7.958;2022-12-13T11:37:56;22.83;;;12.63;;
2602;SDS011;1311;47.966;7.958;2022-12-13T11:40:29;28.30;;;14.70;;
2602;SDS011;1311;47.966;7.958;2022-12-13T11:43:00;22.90;;;12.63;;
2602;SDS011;1311;47.966;7.958;2022-12-13T11:45:32;30.90;;;15.20;;
2602;SDS011;1311;47.966;7.958;2022-12-13T11:48:04;28.17;;;13.40;;
2602;SDS011;1311;47.966;7.958;2022-12-13T11:50:39;27.07;;;14.47;;
2602;SDS011;1311;47.966;7.958;2022-12-13T11:53:15;26.20;;;12.50;;
2602;SDS011;1311;47.966;7.958;2022-12-13T11:55:48;28.47;;;16.30;;
2602;SDS011;1311;47.966;7.958;2022-12-13T11:58:20;27.00;;;13.67;;
2602;SDS011;1311;47.966;7.958;2022-12-13T12:00:51;27.03;;;14.00;;
2602;SDS011;1311;47.966;7.958;2022-12-13T12:03:27;19.47;;;10.80;;
2602;SDS011;1311;47.966;7.958;2022-12-13T12:06:03;22.80;;;11.90;;
2602;SDS011;1311;47.966;7.958;2022-12-13T12:08:38;19.43;;;10.23;;
2602;SDS011;1311;47.966;7.958;2022-12-13T12:11:11;18.70;;;10.70;;
2602;SDS011;1311;47.966;7.958;2022-12-13T12:13:47;25.53;;;13.57;;
2602;SDS011;1311;47.966;7.958;2022-12-13T12:16:29;25.00;;;11.53;;
2602;SDS011;1311;47.966;7.958;2022-12-13T12:19:00;26.33;;;14.93;;
2602;SDS011;1311;47.966;7.958;2022-12-13T12:21:30;22.77;;;12.63;;
2602;SDS011;1311;47.966;7.958;2022-12-13T12:24:06;20.93;;;12.57;;
2602;SDS011;1311;47.966;7.958;2022-12-13T12:26:41;27.33;;;14.10;;
2602;SDS011;1311;47.966;7.958;2022-12-13T12:29:28;19.37;;;10.93;;
2602;SDS011;1311;47.966;7.958;2022-12-13T12:32:18;22.07;;;12.70;;
2602;SDS011;1311;47.966;7.958;2022-12-13T12:34:59;21.57;;;11.50;;
2602;SDS011;1311;47.966;7.958;2022-12-13T12:37:39;25.77;;;13.20;;
2602;SDS011;1311;47.966;7.958;2022-12-13T12:40:22;22.33;;;12.13;;
2602;SDS011;1311;47.966;7.958;2022-12-13T12:43:15;20.07;;;10.90;;
2602;SDS011;1311;47.966;7.958;2022-12-13T12:45:57;21.43;;;10.13;;
2602;SDS011;1311;47.966;7.958;2022-12-13T12:51:50;34.43;;;15.90;;
2602;SDS011;1311;47.966;7.958;2022-12-13T12:54:26;27.50;;;13.13;;
2602;SDS011;1311;47.966;7.958;2022-12-13T12:57:08;20.90;;;11.40;;
2602;SDS011;1311;47.966;7.958;2022-12-13T12:59:50;28.47;;;13.90;;
2602;SDS011;1311;47.966;7.958;2022-12-13T13:02:30;20.93;;;9.93;;
2602;SDS011;1311;47.966;7.958;2022-12-13T13:05:07;22.30;;;12.03;;
2602;SDS011;1311;47.966;7.958;2022-12-13T13:07:41;26.33;;;13.47;;
2602;SDS011;1311;47.966;7.958;2022-12-13T13:10:11;29.97;;;12.60;;
2602;SDS011;1311;47.966;7.958;2022-12-13T13:12:39;30.93;;;14.40;;
2602;SDS011;1311;47.966;7.958;2022-12-13T13:21:33;25.70;;;13.00;;
2602;SDS011;1311;47.966;7.958;2022-12-13T13:24:12;20.40;;;10.40;;
2602;SDS011;1311;47.966;7.958;2022-12-13T13:26:45;31.33;;;12.60;;
2602;SDS011;1311;47.966;7.958;2022-12-13T13:29:27;26.10;;;13.73;;
2602;SDS011;1311;47.966;7.958;2022-12-13T13:31:57;28.77;;;12.10;;
2602;SDS011;1311;47.966;7.958;2022-12-13T13:34:27;27.57;;;14.10;;
2602;SDS011;1311;47.966;7.958;2022-12-13T13:36:56;22.60;;;13.43;;
2602;SDS011;1311;47.966;7.958;2022-12-13T13:39:37;22.33;;;11.10;;
2602;SDS011;1311;47.966;7.958;2022-12-13T13:42:23;25.23;;;13.30;;
2602;SDS011;1311;47.966;7.958;2022-12-13T13:44:55;20.97;;;11.67;;
2602;SDS011;1311;47.966;7.958;2022-12-13T13:48:01;22.13;;;10.13;;
2602;SDS011;1311;47.966;7.958;2022-12-13T13:56:57;19.27;;;10.30;;
2602;SDS011;1311;47.966;7.958;2022-12-13T14:00:04;23.90;;;12.60;;
2602;SDS011;1311;47.966;7.958;2022-12-13T14:09:17;17.30;;;11.17;;
2602;SDS011;1311;47.966;7.958;2022-12-13T14:12:20;18.77;;;10.10;;
2602;SDS011;1311;47.966;7.958;2022-12-13T14:21:34;19.93;;;11.53;;
2602;SDS011;1311;47.966;7.958;2022-12-13T14:24:11;21.53;;;12.23;;
2602;SDS011;1311;47.966;7.958;2022-12-13T14:26:50;22.20;;;11.43;;
2602;SDS011;1311;47.966;7.958;2022-12-13T14:29:29;19.47;;;11.20;;
2602;SDS011;1311;47.966;7.958;2022-12-13T14:31:58;20.80;;;10.33;;
2602;SDS011;1311;47.966;7.958;2022-12-13T14:34:26;23.97;;;14.63;;
2602;SDS011;1311;47.966;7.958;2022-12-13T14:36:54;24.20;;;14.60;;
2602;SDS011;1311;47.966;7.958;2022-12-13T14:39:24;18.13;;;10.43;;
2602;SDS011;1311;47.966;7.958;2022-12-13T14:41:54;22.93;;;11.93;;
2602;SDS011;1311;47.966;7.958;2022-12-13T14:44:23;29.00;;;14.50;;
2602;SDS011;1311;47.966;7.958;2022-12-13T14:46:51;17.80;;;10.53;;
2602;SDS011;1311;47.966;7.958;2022-12-13T14:49:20;23.80;;;10.47;;
2602;SDS011;1311;47.966;7.958;2022-12-13T14:51:49;14.50;;;8.80;;
2602;SDS011;1311;47.966;7.958;2022-12-13T14:54:27;17.87;;;7.53;;
2602;SDS011;1311;47.966;7.958;2022-12-13T14:56:57;19.77;;;11.60;;
2602;SDS011;1311;47.966;7.958;2022-12-13T14:59:26;19.20;;;10.50;;
2602;SDS011;1311;47.966;7.958;2022-12-13T15:01:56;17.63;;;11.37;;
2602;SDS011;1311;47.966;7.958;2022-12-13T15:04:25;20.40;;;10.70;;
2602;SDS011;1311;47.966;7.958;2022-12-13T15:06:54;22.30;;;12.37;;
2602;SDS011;1311;47.966;7.958;2022-12-13T15:09:29;15.67;;;8.13;;
2602;SDS011;1311;47.966;7.958;2022-12-13T15:12:00;14.67;;;7.70;;
2602;SDS011;1311;47.966;7.958;2022-12-13T15:14:33;22.20;;;10.70;;
2602;SDS011;1311;47.966;7.958;2022-12-13T15:17:02;22.57;;;13.10;;
2602;SDS011;1311;47.966;7.958;2022-12-13T15:19:29;29.10;;;14.70;;
2602;SDS011;1311;47.966;7.958;2022-12-13T15:21:57;18.80;;;11.90;;
2602;SDS011;1311;47.966;7.958;2022-12-13T15:24:25;18.90;;;10.37;;
2602;SDS011;1311;47.966;7.958;2022-12-13T15:26:56;21.83;;;11.30;;
2602;SDS011;1311;47.966;7.958;2022-12-13T15:29:25;20.40;;;11.40;;
2602;SDS011;1311;47.966;7.958;2022-12-13T15:31:54;24.80;;;11.60;;
2602;SDS011;1311;47.966;7.958;2022-12-13T15:34:28;18.10;;;10.53;;
2602;SDS011;1311;47.966;7.958;2022-12-13T15:37:00;24.67;;;12.60;;
2602;SDS011;1311;47.966;7.958;2022-12-13T15:39:29;22.83;;;12.33;;
2602;SDS011;1311;47.966;7.958;2022-12-13T15:42:03;23.70;;;12.63;;
2602;SDS011;1311;47.966;7.958;2022-12-13T15:44:31;20.00;;;11.30;;
2602;SDS011;1311;47.966;7.958;2022-12-13T15:47:04;21.20;;;11.20;;